createdAt,value
2023-05-03T00:02:05.437Z,17.81
2023-05-03T00:04:32.347Z,17.61
2023-05-03T00:06:59.184Z,18.38
2023-05-03T00:09:26.017Z,18.72
2023-05-03T00:11:53.716Z,18.75
2023-05-03T00:14:20.648Z,18.28
2023-05-03T00:16:47.756Z,18.86
2023-05-03T00:19:24.189Z,18.77
2023-05-03T00:21:57.708Z,19.33
2023-05-03T00:24:24.564Z,19.99
2023-05-03T00:26:51.422Z,19.93
2023-05-03T00:29:21.301Z,19.70
2023-05-03T00:31:48.173Z,20.15
2023-05-03T00:34:15.147Z,20.42
2023-05-03T00:36:42.103Z,19.41
2023-05-03T00:39:09.953Z,19.79
2023-05-03T00:41:36.808Z,19.00
2023-05-03T00:44:03.738Z,18.59
2023-05-03T00:46:30.999Z,18.46
2023-05-03T00:48:58.035Z,18.44
2023-05-03T00:51:27.866Z,17.97
2023-05-03T00:53:54.739Z,17.65
2023-05-03T00:56:23.023Z,17.56
2023-05-03T00:58:52.025Z,17.60
2023-05-03T01:01:19.376Z,18.12
2023-05-03T01:03:46.671Z,17.74
2023-05-03T01:06:27.920Z,17.37
2023-05-03T01:09:18.629Z,17.27
2023-05-03T01:11:59.603Z,17.43
2023-05-03T01:14:51.270Z,17.91
2023-05-03T01:17:18.587Z,17.56
2023-05-03T01:19:49.256Z,18.00
2023-05-03T01:22:44.359Z,18.12
2023-05-03T01:25:15.337Z,17.97
2023-05-03T01:27:42.868Z,17.61
2023-05-03T01:30:11.532Z,17.60
2023-05-03T01:33:04.427Z,17.35
2023-05-03T01:35:34.320Z,16.23
2023-05-03T01:38:01.321Z,16.53
2023-05-03T01:40:29.796Z,16.70
2023-05-03T01:42:57.667Z,16.44
2023-05-03T01:45:25.684Z,15.46
2023-05-03T01:47:52.544Z,15.91
2023-05-03T01:50:19.424Z,15.76
2023-05-03T01:52:46.258Z,15.74
2023-05-03T01:55:13.111Z,15.22
2023-05-03T01:57:39.994Z,15.30
2023-05-03T02:00:07.438Z,15.54
2023-05-03T02:02:34.252Z,15.52
2023-05-03T02:05:01.214Z,15.34
2023-05-03T02:07:28.037Z,15.01
2023-05-03T02:09:55.055Z,15.32
2023-05-03T02:12:22.016Z,15.02
2023-05-03T02:14:48.819Z,14.69
2023-05-03T02:17:17.372Z,15.26
2023-05-03T02:19:44.498Z,14.85
2023-05-03T02:22:11.350Z,14.76
2023-05-03T02:24:40.172Z,14.73
2023-05-03T02:27:07.165Z,14.93
2023-05-03T02:29:34.337Z,15.10
2023-05-03T02:32:01.200Z,14.46
2023-05-03T02:34:28.256Z,15.29
2023-05-03T02:36:55.192Z,14.79
2023-05-03T02:39:22.061Z,15.42
2023-05-03T02:41:48.850Z,16.05
2023-05-03T02:44:15.775Z,16.07
2023-05-03T02:46:42.854Z,15.62
2023-05-03T02:49:10.137Z,15.98
2023-05-03T02:51:37.256Z,16.42
2023-05-03T02:54:04.160Z,16.79
2023-05-03T02:56:30.994Z,16.33
2023-05-03T02:58:57.802Z,17.01
2023-05-03T03:01:24.693Z,17.09
2023-05-03T03:03:51.645Z,16.81
2023-05-03T03:06:18.600Z,16.94
2023-05-03T03:08:45.488Z,16.30
2023-05-03T03:11:12.396Z,15.90
2023-05-03T03:13:41.365Z,16.15
2023-05-03T03:16:08.567Z,15.57
2023-05-03T03:18:36.099Z,16.15
2023-05-03T03:21:03.653Z,15.88
2023-05-03T03:23:30.810Z,16.17
2023-05-03T03:25:57.908Z,15.09
2023-05-03T03:28:24.849Z,15.07
2023-05-03T03:30:51.715Z,15.39
2023-05-03T03:33:18.708Z,15.48
2023-05-03T03:35:45.863Z,15.55
2023-05-03T03:38:12.758Z,15.63
2023-05-03T03:40:39.933Z,15.89
2023-05-03T03:43:06.733Z,16.10
2023-05-03T03:45:33.554Z,16.61
2023-05-03T03:48:00.773Z,16.81
2023-05-03T03:50:27.701Z,16.39
2023-05-03T03:52:54.541Z,16.43
2023-05-03T03:55:21.518Z,16.08
2023-05-03T03:57:48.405Z,16.48
2023-05-03T04:00:15.406Z,16.13
2023-05-03T04:02:42.464Z,17.13
2023-05-03T04:05:09.607Z,16.51
2023-05-03T04:07:36.424Z,16.09
2023-05-03T04:10:03.581Z,16.59
2023-05-03T04:12:30.660Z,16.46
2023-05-03T04:14:57.587Z,17.19
2023-05-03T04:17:24.485Z,16.82
2023-05-03T04:19:52.519Z,15.71
2023-05-03T04:22:19.403Z,16.14
2023-05-03T04:24:46.222Z,15.67
2023-05-03T04:27:14.815Z,15.36
2023-05-03T04:29:41.698Z,15.59
2023-05-03T04:32:08.528Z,15.38
2023-05-03T04:34:35.392Z,15.44
2023-05-03T04:37:02.276Z,14.09
2023-05-03T04:39:29.112Z,14.22
2023-05-03T04:41:56.668Z,14.92
2023-05-03T04:44:23.578Z,14.40
2023-05-03T04:46:51.228Z,13.78
2023-05-03T04:49:18.302Z,14.26
2023-05-03T04:51:45.171Z,14.07
2023-05-03T04:54:12.009Z,14.27
2023-05-03T04:56:38.865Z,14.46
2023-05-03T04:59:07.096Z,14.87
2023-05-03T05:01:33.962Z,14.73
2023-05-03T05:04:01.146Z,15.31
2023-05-03T05:06:28.149Z,15.51
2023-05-03T05:08:54.959Z,16.08
2023-05-03T05:11:22.435Z,16.20
2023-05-03T05:13:49.334Z,16.34
2023-05-03T05:16:16.541Z,16.58
2023-05-03T05:18:43.913Z,16.44
2023-05-03T05:21:10.744Z,16.18
2023-05-03T05:23:37.690Z,17.03
2023-05-03T05:26:04.900Z,16.63
2023-05-03T05:28:32.507Z,15.83
2023-05-03T05:30:59.417Z,17.03
2023-05-03T05:33:26.354Z,17.37
2023-05-03T05:35:53.286Z,17.06
2023-05-03T05:38:20.160Z,17.11
2023-05-03T05:40:47.116Z,17.22
2023-05-03T05:43:13.952Z,17.34
2023-05-03T05:45:40.842Z,16.39
2023-05-03T05:48:08.427Z,16.49
2023-05-03T05:50:35.763Z,16.17
2023-05-03T05:53:02.620Z,16.78
2023-05-03T05:55:29.725Z,16.00
2023-05-03T05:57:56.641Z,16.20
2023-05-03T06:00:24.509Z,15.87
2023-05-03T06:02:51.753Z,15.90
2023-05-03T06:05:19.179Z,14.57
2023-05-03T06:07:46.122Z,15.49
2023-05-03T06:10:13.089Z,15.78
2023-05-03T06:12:39.946Z,14.86
2023-05-03T06:15:07.948Z,14.32
2023-05-03T06:17:35.934Z,14.50
2023-05-03T06:20:05.056Z,14.38
2023-05-03T06:22:32.242Z,14.27
2023-05-03T06:24:59.096Z,14.21
2023-05-03T06:27:26.002Z,13.68
2023-05-03T06:29:53.870Z,13.98
2023-05-03T06:32:22.095Z,13.78
2023-05-03T06:34:50.082Z,14.04
2023-05-03T06:37:17.641Z,14.54
2023-05-03T06:39:44.474Z,14.12
2023-05-03T06:42:11.458Z,13.82
2023-05-03T06:44:38.353Z,13.55
2023-05-03T06:47:05.325Z,13.16
2023-05-03T06:49:32.995Z,13.46
2023-05-03T06:51:59.841Z,13.94
2023-05-03T06:54:26.701Z,13.66
2023-05-03T06:56:53.544Z,13.72
2023-05-03T06:59:20.436Z,14.72
2023-05-03T07:01:47.393Z,14.83
2023-05-03T07:04:14.688Z,14.82
2023-05-03T07:06:55.482Z,15.34
2023-05-03T07:09:32.046Z,15.03
2023-05-03T07:12:09.078Z,15.49
2023-05-03T07:14:36.018Z,16.36
2023-05-03T07:17:02.882Z,17.20
2023-05-03T07:19:30.324Z,16.37
2023-05-03T07:21:57.174Z,17.04
2023-05-03T07:24:25.920Z,17.44
2023-05-03T07:26:55.872Z,17.84
2023-05-03T07:29:22.718Z,16.87
2023-05-03T07:31:51.414Z,16.03
2023-05-03T07:34:19.717Z,15.66
2023-05-03T07:36:46.680Z,16.37
2023-05-03T07:39:13.565Z,16.12
2023-05-03T07:41:40.613Z,15.85
2023-05-03T07:44:07.903Z,16.09
2023-05-03T07:46:35.552Z,16.33
2023-05-03T07:49:06.434Z,15.75
2023-05-03T07:51:36.950Z,15.90
2023-05-03T07:54:04.364Z,15.66
2023-05-03T07:56:31.626Z,15.95
2023-05-03T07:59:08.103Z,16.60
2023-05-03T08:01:36.810Z,16.84
2023-05-03T08:04:04.800Z,16.83
2023-05-03T08:06:33.032Z,16.42
2023-05-03T08:08:59.933Z,16.97
2023-05-03T08:11:30.136Z,16.34
2023-05-03T08:13:57.141Z,16.86
2023-05-03T08:16:24.218Z,17.41
2023-05-03T08:18:51.856Z,17.47
2023-05-03T08:21:19.417Z,16.86
2023-05-03T08:23:46.552Z,16.25
2023-05-03T08:26:14.395Z,16.58
2023-05-03T08:28:41.649Z,15.89
2023-05-03T08:31:08.994Z,15.85
2023-05-03T08:33:36.035Z,16.10
2023-05-03T08:36:03.287Z,16.43
2023-05-03T08:38:30.448Z,16.88
2023-05-03T08:40:59.026Z,17.42
2023-05-03T08:43:28.973Z,17.33
2023-05-03T08:45:56.039Z,17.80
2023-05-03T08:48:23.560Z,18.08
2023-05-03T08:50:52.267Z,17.77
2023-05-03T08:53:19.137Z,17.54
2023-05-03T08:55:46.054Z,17.56
2023-05-03T08:58:13.410Z,17.89
2023-05-03T09:00:45.000Z,17.27
2023-05-03T09:03:12.388Z,17.06
2023-05-03T09:05:40.700Z,17.33
2023-05-03T09:08:11.950Z,17.78
2023-05-03T09:10:40.431Z,17.69
2023-05-03T09:13:08.662Z,18.11
2023-05-03T09:15:36.181Z,17.47
2023-05-03T09:18:21.420Z,18.12
2023-05-03T09:20:52.831Z,17.55
2023-05-03T09:23:26.255Z,17.97
2023-05-03T09:25:53.261Z,18.63
2023-05-03T09:28:20.890Z,19.23
2023-05-03T09:30:48.909Z,18.44
2023-05-03T09:33:23.142Z,18.63
2023-05-03T09:36:11.143Z,18.93
2023-05-03T09:38:38.072Z,18.69
2023-05-03T09:41:08.200Z,18.89
2023-05-03T09:43:37.824Z,18.66
2023-05-03T09:46:11.465Z,19.03
2023-05-03T09:48:39.194Z,18.52
2023-05-03T09:51:06.763Z,19.23
2023-05-03T09:53:35.093Z,19.13
2023-05-03T09:56:09.173Z,18.86
2023-05-03T09:58:36.574Z,19.58
2023-05-03T10:01:03.469Z,19.17
2023-05-03T10:03:41.482Z,18.91
2023-05-03T10:06:28.986Z,18.70
2023-05-03T10:09:06.002Z,19.04
2023-05-03T10:11:35.359Z,18.57
2023-05-03T10:14:03.840Z,17.63
2023-05-03T10:16:34.433Z,17.42
2023-05-03T10:19:33.786Z,18.43
2023-05-03T10:22:05.921Z,18.50
2023-05-03T10:24:35.956Z,18.41
2023-05-03T10:27:03.556Z,18.19
2023-05-03T10:29:37.438Z,18.91
2023-05-03T10:32:05.541Z,18.63
2023-05-03T10:34:36.253Z,19.04
2023-05-03T10:37:09.736Z,18.71
2023-05-03T10:39:37.059Z,18.89
2023-05-03T10:42:06.294Z,18.50
2023-05-03T10:44:55.106Z,18.11
2023-05-03T10:47:25.409Z,18.24
2023-05-03T10:50:16.663Z,19.18
2023-05-03T10:52:43.554Z,18.58
2023-05-03T10:55:18.224Z,17.10
2023-05-03T10:57:46.972Z,18.21
2023-05-03T11:00:23.749Z,19.38
2023-05-03T11:03:25.426Z,19.50
2023-05-03T11:05:52.472Z,19.17
2023-05-03T11:08:21.344Z,18.75
2023-05-03T11:10:51.505Z,18.21
2023-05-03T11:13:18.367Z,18.20
2023-05-03T11:15:47.647Z,18.49
2023-05-03T11:18:15.515Z,19.02
2023-05-03T11:20:42.438Z,19.18
2023-05-03T11:23:09.496Z,18.93
2023-05-03T11:25:36.387Z,18.85
2023-05-03T11:28:07.234Z,18.98
2023-05-03T11:30:35.285Z,18.61
2023-05-03T11:33:02.282Z,17.82
2023-05-03T11:35:30.194Z,17.93
2023-05-03T11:37:57.528Z,17.70
2023-05-03T11:40:24.759Z,18.12
2023-05-03T11:42:59.088Z,18.05
2023-05-03T11:45:44.296Z,18.31
2023-05-03T11:48:13.018Z,18.60
2023-05-03T11:50:47.109Z,18.07
2023-05-03T11:53:17.792Z,17.93
2023-05-03T11:55:48.171Z,18.18
2023-05-03T11:58:21.717Z,17.63
2023-05-03T12:00:50.332Z,17.92
2023-05-03T12:03:19.055Z,17.23
2023-05-03T12:05:47.942Z,17.61
2023-05-03T12:08:20.949Z,17.83
2023-05-03T12:10:53.784Z,17.82
2023-05-03T12:13:39.789Z,18.11
2023-05-03T12:16:14.297Z,18.20
2023-05-03T12:18:51.137Z,18.21
2023-05-03T12:23:55.978Z,17.58
2023-05-03T12:26:23.520Z,17.16
2023-05-03T12:28:50.515Z,18.09
2023-05-03T12:31:22.966Z,17.88
2023-05-03T12:34:12.189Z,17.70
2023-05-03T12:36:38.617Z,17.62
2023-05-03T12:39:09.233Z,17.91
2023-05-03T12:44:10.224Z,17.22
2023-05-03T12:46:38.579Z,17.40
2023-05-03T12:49:08.033Z,17.89
2023-05-03T12:51:35.501Z,17.98
2023-05-03T12:54:04.054Z,17.33
2023-05-03T12:56:33.293Z,18.40
2023-05-03T13:04:36.412Z,18.75
2023-05-03T13:06:47.435Z,18.87
2023-05-03T13:09:20.480Z,19.02
2023-05-03T13:11:50.198Z,19.44
2023-05-03T13:14:17.188Z,19.73
2023-05-03T13:16:45.697Z,18.53
2023-05-03T13:19:16.442Z,18.84
2023-05-03T13:21:43.390Z,17.90
2023-05-03T13:24:10.301Z,18.53
2023-05-03T13:26:37.160Z,18.88
2023-05-03T13:29:05.153Z,19.56
2023-05-03T13:31:31.973Z,18.77
2023-05-03T13:33:58.837Z,18.10
2023-05-03T13:36:27.090Z,18.47
2023-05-03T13:38:54.309Z,18.89
2023-05-03T13:41:21.864Z,18.28
2023-05-03T13:43:48.779Z,17.91
2023-05-03T13:46:15.712Z,17.30
2023-05-03T13:48:43.424Z,17.18
2023-05-03T13:51:11.496Z,17.62
2023-05-03T13:53:41.238Z,18.08
2023-05-03T13:56:08.315Z,17.77
2023-05-03T13:58:39.887Z,17.66
2023-05-03T14:01:07.129Z,17.32
2023-05-03T14:03:34.249Z,17.58
2023-05-03T14:06:01.461Z,17.66
2023-05-03T14:08:28.518Z,18.38
2023-05-03T14:10:55.398Z,18.76
2023-05-03T14:13:22.377Z,17.72
2023-05-03T14:15:49.365Z,17.99
2023-05-03T14:18:16.446Z,17.55
2023-05-03T14:20:43.511Z,17.77
2023-05-03T14:23:10.340Z,17.52
2023-05-03T14:25:37.237Z,18.34
2023-05-03T14:28:05.434Z,17.48
2023-05-03T14:30:33.347Z,18.17
2023-05-03T14:33:00.495Z,17.56
2023-05-03T14:35:27.376Z,17.61
2023-05-03T14:37:54.697Z,17.75
2023-05-03T14:40:22.009Z,17.52
2023-05-03T14:42:49.028Z,17.25
2023-05-03T14:45:16.098Z,17.19
2023-05-03T14:47:43.053Z,17.88
2023-05-03T14:50:10.380Z,17.08
2023-05-03T14:52:38.115Z,17.00
2023-05-03T14:55:08.640Z,17.20
2023-05-03T14:57:36.511Z,17.53
2023-05-03T15:00:05.074Z,17.40
2023-05-03T15:02:32.281Z,17.01
2023-05-03T15:04:59.255Z,17.20
2023-05-03T15:07:26.085Z,17.06
2023-05-03T15:09:52.924Z,16.10
2023-05-03T15:12:19.784Z,16.12
2023-05-03T15:14:46.932Z,16.61
2023-05-03T15:17:13.971Z,16.27
2023-05-03T15:19:42.230Z,16.83
2023-05-03T15:22:09.126Z,16.88
2023-05-03T15:24:35.988Z,16.17
2023-05-03T15:27:03.101Z,16.31
2023-05-03T15:29:29.957Z,16.21
2023-05-03T15:31:56.814Z,16.53
2023-05-03T15:34:23.674Z,16.39
2023-05-03T15:36:50.522Z,16.37
2023-05-03T15:39:17.413Z,16.46
2023-05-03T15:41:45.812Z,16.35
2023-05-03T15:44:14.995Z,16.35
2023-05-03T15:46:43.115Z,15.89
2023-05-03T15:49:11.994Z,15.92
2023-05-03T15:51:39.403Z,15.94
2023-05-03T15:54:06.326Z,16.65
2023-05-03T15:56:33.325Z,16.53
2023-05-03T15:59:00.191Z,15.90
2023-05-03T16:01:27.099Z,15.76
2023-05-03T16:03:54.046Z,15.85
2023-05-03T16:06:20.962Z,16.05
2023-05-03T16:08:47.821Z,16.34
2023-05-03T16:11:15.252Z,16.20
2023-05-03T16:13:42.075Z,16.33
2023-05-03T16:16:08.985Z,16.55
2023-05-03T16:18:37.008Z,16.47
2023-05-03T16:21:03.921Z,16.14
2023-05-03T16:23:30.839Z,16.54
2023-05-03T16:25:57.906Z,16.14
2023-05-03T16:28:24.878Z,16.28
2023-05-03T16:30:52.035Z,16.52
2023-05-03T16:33:19.616Z,15.93
2023-05-03T16:35:46.539Z,15.97
2023-05-03T16:38:13.441Z,16.11
2023-05-03T16:40:40.776Z,15.22
2023-05-03T16:43:07.807Z,15.65
2023-05-03T16:45:34.834Z,15.25
2023-05-03T16:48:04.765Z,15.34
2023-05-03T16:50:33.080Z,15.57
2023-05-03T16:52:59.953Z,15.87
2023-05-03T16:55:26.833Z,15.99
2023-05-03T16:57:53.723Z,15.70
2023-05-03T17:00:21.002Z,16.18
2023-05-03T17:02:48.039Z,16.33
2023-05-03T17:05:15.195Z,15.12
2023-05-03T17:07:42.204Z,15.49
2023-05-03T17:10:09.629Z,15.21
2023-05-03T17:12:36.718Z,15.51
2023-05-03T17:15:04.146Z,15.08
2023-05-03T17:17:33.717Z,15.34
2023-05-03T17:20:00.653Z,15.06
2023-05-03T17:22:28.145Z,15.01
2023-05-03T17:24:58.072Z,14.93
2023-05-03T17:27:25.427Z,14.92
2023-05-03T17:29:52.399Z,14.90
2023-05-03T17:32:19.270Z,15.77
2023-05-03T17:34:46.105Z,15.67
2023-05-03T17:37:13.004Z,15.18
2023-05-03T17:39:40.028Z,15.56
2023-05-03T17:42:06.971Z,15.55
2023-05-03T17:44:34.440Z,15.66
2023-05-03T17:47:01.364Z,15.90
2023-05-03T17:49:28.207Z,15.57
2023-05-03T17:51:55.074Z,15.59
2023-05-03T17:54:21.912Z,15.67
2023-05-03T17:56:48.833Z,15.81
2023-05-03T17:59:16.657Z,15.75
2023-05-03T18:01:43.526Z,15.25
2023-05-03T18:04:10.414Z,15.63
2023-05-03T18:06:37.245Z,15.72
2023-05-03T18:09:04.658Z,14.89
2023-05-03T18:11:31.498Z,14.84
2023-05-03T18:13:58.366Z,14.83
2023-05-03T18:16:25.273Z,15.15
2023-05-03T18:18:53.194Z,14.91
2023-05-03T18:21:22.157Z,15.13
2023-05-03T18:23:49.001Z,15.16
2023-05-03T18:26:15.906Z,14.94
2023-05-03T18:28:42.880Z,14.86
2023-05-03T18:31:11.746Z,15.27
2023-05-03T18:33:40.273Z,15.24
2023-05-03T18:36:11.952Z,15.73
2023-05-03T18:38:39.557Z,16.16
2023-05-03T18:41:15.069Z,15.76
2023-05-03T18:43:43.074Z,15.84
2023-05-03T18:46:10.693Z,15.53
2023-05-03T18:48:37.686Z,16.11
2023-05-03T18:51:04.876Z,16.06
2023-05-03T18:53:34.508Z,16.34
2023-05-03T18:56:04.902Z,16.01
2023-05-03T18:58:32.267Z,15.92
2023-05-03T19:01:00.615Z,16.02
2023-05-03T19:03:29.708Z,15.72
2023-05-03T19:06:10.387Z,15.36
2023-05-03T19:08:37.242Z,15.70
2023-05-03T19:11:08.674Z,15.77
2023-05-03T19:13:36.124Z,15.56
2023-05-03T19:16:03.965Z,15.72
2023-05-03T19:18:31.783Z,15.24
2023-05-03T19:20:58.734Z,14.97
2023-05-03T19:23:25.662Z,15.83
2023-05-03T19:25:52.544Z,16.14
2023-05-03T19:28:19.531Z,16.56
2023-05-03T19:30:49.476Z,16.10
2023-05-03T19:33:21.159Z,16.80
2023-05-03T19:35:48.260Z,16.74
2023-05-03T19:38:15.850Z,16.30
2023-05-03T19:40:55.719Z,16.99
2023-05-03T19:43:22.565Z,17.81
2023-05-03T19:45:49.430Z,18.05
2023-05-03T19:48:16.883Z,18.49
2023-05-03T19:50:44.600Z,18.62
2023-05-03T19:53:11.549Z,17.33
2023-05-03T19:55:38.428Z,18.26
2023-05-03T19:58:05.858Z,18.69
2023-05-03T20:00:32.750Z,19.05
2023-05-03T20:02:59.667Z,18.93
2023-05-03T20:05:26.687Z,19.26
2023-05-03T20:07:53.567Z,18.71
2023-05-03T20:10:20.536Z,17.72
2023-05-03T20:12:47.447Z,18.54
2023-05-03T20:15:14.359Z,18.31
2023-05-03T20:17:41.276Z,18.26
2023-05-03T20:20:10.930Z,17.85
2023-05-03T20:22:37.719Z,17.54
2023-05-03T20:25:05.013Z,18.47
2023-05-03T20:27:31.934Z,17.55
2023-05-03T20:29:58.800Z,17.05
2023-05-03T20:32:26.176Z,15.95
2023-05-03T20:34:53.372Z,14.93
2023-05-03T20:37:20.246Z,14.95
2023-05-03T20:39:47.629Z,14.50
2023-05-03T20:42:14.516Z,14.64
2023-05-03T20:44:41.395Z,14.97
2023-05-03T20:47:08.234Z,15.20
2023-05-03T20:49:35.114Z,15.03
2023-05-03T20:52:01.954Z,14.73
2023-05-03T20:54:28.810Z,14.43
2023-05-03T20:56:56.093Z,14.43
2023-05-03T20:59:22.957Z,14.00
2023-05-03T21:01:49.916Z,14.32
2023-05-03T21:04:16.825Z,13.71
2023-05-03T21:06:45.213Z,13.42
2023-05-03T21:09:12.541Z,14.51
2023-05-03T21:11:39.504Z,14.74
2023-05-03T21:14:06.697Z,15.27
2023-05-03T21:16:33.613Z,15.28
2023-05-03T21:19:01.609Z,15.69
2023-05-03T21:21:28.680Z,16.81
2023-05-03T21:23:55.513Z,17.77
2023-05-03T21:26:22.503Z,17.08
2023-05-03T21:28:49.856Z,17.15
2023-05-03T21:31:16.764Z,17.00
2023-05-03T21:33:43.663Z,17.22
2023-05-03T21:36:10.484Z,17.47
2023-05-03T21:38:37.445Z,16.92
2023-05-03T21:41:05.063Z,16.05
2023-05-03T21:43:32.752Z,15.94
2023-05-03T21:45:59.644Z,16.40
2023-05-03T21:48:26.592Z,16.63
2023-05-03T21:50:53.795Z,16.92
2023-05-03T21:53:20.854Z,16.10
2023-05-03T21:55:47.771Z,16.19
2023-05-03T21:58:14.859Z,15.62
2023-05-03T22:00:42.386Z,15.37
2023-05-03T22:03:09.344Z,15.23
2023-05-03T22:05:39.685Z,14.96
2023-05-03T22:08:06.736Z,14.86
2023-05-03T22:10:33.564Z,15.27
2023-05-03T22:13:00.462Z,15.81
2023-05-03T22:15:27.585Z,15.88
2023-05-03T22:17:54.531Z,15.78
2023-05-03T22:20:21.456Z,16.02
2023-05-03T22:22:48.429Z,16.41
2023-05-03T22:25:25.837Z,16.08
2023-05-03T22:27:53.365Z,16.37
2023-05-03T22:30:20.526Z,16.54
2023-05-03T22:32:47.885Z,16.17
2023-05-03T22:35:15.153Z,16.25
2023-05-03T22:37:42.272Z,16.05
2023-05-03T22:40:09.644Z,16.99
2023-05-03T22:42:36.580Z,17.06
2023-05-03T22:45:03.583Z,16.69
2023-05-03T22:47:30.418Z,16.73
2023-05-03T22:49:57.530Z,17.09
2023-05-03T22:52:24.372Z,17.22
2023-05-03T22:54:56.248Z,17.18
2023-05-03T22:57:23.130Z,17.09
2023-05-03T22:59:50.025Z,16.07
2023-05-03T23:02:17.712Z,16.30
2023-05-03T23:04:44.646Z,15.30
2023-05-03T23:07:11.531Z,16.46
2023-05-03T23:09:38.392Z,15.64
2023-05-03T23:12:05.465Z,16.08
2023-05-03T23:14:32.330Z,16.59
2023-05-03T23:16:59.212Z,16.71
2023-05-03T23:19:26.531Z,16.60
2023-05-03T23:21:53.381Z,16.43
2023-05-03T23:24:20.356Z,16.70
2023-05-03T23:26:47.211Z,15.54
2023-05-03T23:29:14.537Z,16.61
2023-05-03T23:31:41.832Z,16.46
2023-05-03T23:34:09.189Z,16.36
2023-05-03T23:36:36.135Z,16.79
2023-05-03T23:39:03.970Z,16.81
2023-05-03T23:41:30.969Z,15.89
2023-05-03T23:43:57.886Z,16.52
2023-05-03T23:46:24.794Z,16.67
2023-05-03T23:48:51.728Z,15.87
2023-05-03T23:51:18.552Z,16.81
2023-05-03T23:53:45.404Z,16.20
2023-05-03T23:56:12.486Z,16.75
2023-05-03T23:58:39.407Z,16.31
